Time;durP1;ratioP1;P1;durP2;ratioP2;P2;SDS_P1;SDS_P2;PMS_P1;PMS_P2;Temp;Humidity;BMP_temperature;BMP_pressure;BME280_temperature;BME280_humidity;BME280_pressure;Samples;Min_cycle;Max_cycle;Signal;HPM_P1;HPM_P2
2022/09/27 00:01:12;;;;;;;2.00;1.90;;;;;;;10.01;100.00;94638.69;6133689;23;20431;-79
2022/09/27 00:03:39;;;;;;;4.17;2.17;;;;;;;9.94;100.00;94622.03;6133634;23;20467;-79
2022/09/27 00:06:23;;;;;;;1.80;1.70;;;;;;;9.95;100.00;94626.19;6108728;23;20403;-78
2022/09/27 00:08:49;;;;;;;2.10;1.90;;;;;;;9.73;100.00;94602.22;6133300;23;20537;-79
2022/09/27 00:11:25;;;;;;;2.10;1.90;;;;;;;9.97;100.00;94624.69;6132811;23;20407;-79
2022/09/27 00:13:54;;;;;;;2.50;2.17;;;;;;;9.87;100.00;94608.75;6132959;23;20395;-79
2022/09/27 00:16:22;;;;;;;2.47;2.27;;;;;;;9.68;100.00;94576.19;6159281;23;20458;-79
2022/09/27 00:18:49;;;;;;;1.93;1.80;;;;;;;9.98;100.00;94617.53;6134066;23;20450;-79
2022/09/27 00:21:16;;;;;;;3.73;2.00;;;;;;;9.84;100.00;94597.06;6134959;23;20408;-79
2022/09/27 00:23:43;;;;;;;3.17;2.37;;;;;;;9.94;100.00;94614.88;6112074;23;20399;-79
2022/09/27 00:26:12;;;;;;;2.27;2.17;;;;;;;9.85;100.00;94609.13;6137383;23;20455;-78
2022/09/27 00:28:39;;;;;;;2.30;2.10;;;;;;;9.80;100.00;94606.06;6135899;23;20404;-79
2022/09/27 00:31:28;;;;;;;4.83;2.70;;;;;;;9.77;100.00;94610.97;6134662;23;21216;-79
2022/09/27 00:33:57;;;;;;;3.13;2.30;;;;;;;9.63;100.00;94584.44;6132080;23;20400;-78
2022/09/27 00:36:26;;;;;;;2.70;2.50;;;;;;;9.68;100.00;94602.56;6131513;23;20941;-78
2022/09/27 00:38:53;;;;;;;2.57;2.20;;;;;;;9.51;100.00;94589.97;6132128;23;20428;-78
2022/09/27 00:41:26;;;;;;;3.70;2.70;;;;;;;9.23;100.00;94542.97;6107481;23;20404;-78
2022/09/27 00:43:55;;;;;;;3.20;2.30;;;;;;;9.49;100.00;94579.03;6133159;23;20427;-78
2022/09/27 00:46:35;;;;;;;2.20;2.00;;;;;;;8.91;100.00;94483.84;6131224;23;20403;-79
2022/09/27 00:49:15;;;;;;;5.40;2.80;;;;;;;9.54;100.00;94572.66;6157915;23;20373;-78
2022/09/27 00:51:45;;;;;;;2.90;2.23;;;;;;;9.50;100.00;94577.91;6131876;23;20369;-78
2022/09/27 00:54:16;;;;;;;3.00;2.43;;;;;;;9.53;100.00;94565.88;6131232;23;20703;-78
2022/09/27 00:56:45;;;;;;;2.10;1.93;;;;;;;9.37;100.00;94558.19;6157232;23;20443;-78
2022/09/27 00:59:17;;;;;;;3.20;3.00;;;;;;;9.14;100.00;94532.69;6123577;23;20466;-76
2022/09/27 01:01:44;;;;;;;4.70;3.00;;;;;;;9.33;100.00;94544.94;6154221;23;20397;-78
2022/09/27 01:04:13;;;;;;;2.60;2.40;;;;;;;9.28;100.00;94542.63;6154559;23;20718;-77
2022/09/27 01:06:40;;;;;;;3.70;2.73;;;;;;;9.05;100.00;94510.38;6180023;23;20392;-77
2022/09/27 01:09:09;;;;;;;3.40;3.10;;;;;;;9.36;100.00;94549.50;6153602;23;20425;-78
2022/09/27 01:11:42;;;;;;;5.10;3.50;;;;;;;9.28;100.00;94529.44;6153867;23;20462;-78
2022/09/27 01:14:37;;;;;;;2.93;2.73;;;;;;;9.28;100.00;94526.81;6153362;23;20394;-78
2022/09/27 01:17:10;;;;;;;4.00;2.77;;;;;;;9.31;100.00;94530.59;6153743;23;20807;-77
2022/09/27 01:20:09;;;;;;;3.20;2.90;;;;;;;9.15;100.00;94513.13;6137669;23;20402;-78
2022/09/27 01:22:55;;;;;;;2.93;2.63;;;;;;;9.24;100.00;94533.94;6133440;23;20423;-78
2022/09/27 01:25:34;;;;;;;3.20;2.50;;;;;;;9.23;100.00;94527.16;6133146;23;20984;-79
2022/09/27 01:28:26;;;;;;;6.97;3.13;;;;;;;9.24;100.00;94526.03;6108661;23;20423;-78
2022/09/27 01:31:34;;;;;;;3.93;3.07;;;;;;;9.22;100.00;94517.72;6132752;23;20466;-78
2022/09/27 01:34:04;;;;;;;3.80;3.50;;;;;;;9.14;100.00;94508.97;6109311;23;20431;-78
2022/09/27 01:36:53;;;;;;;3.10;2.90;;;;;;;9.15;100.00;94509.72;6133379;23;20404;-78
2022/09/27 01:39:26;;;;;;;5.10;2.50;;;;;;;9.07;100.00;94508.13;6107909;23;20474;-78
2022/09/27 01:42:23;;;;;;;3.20;2.90;;;;;;;8.58;100.00;94420.28;6135744;23;20384;-78
2022/09/27 01:45:32;;;;;;;5.07;3.10;;;;;;;9.14;100.00;94490.50;6107859;23;20396;-78
2022/09/27 01:48:20;;;;;;;2.90;2.70;;;;;;;9.03;100.00;94475.72;6131379;23;20753;-78
2022/09/27 01:50:58;;;;;;;2.90;2.70;;;;;;;9.06;100.00;94477.63;6107395;23;20494;-78
2022/09/27 01:53:34;;;;;;;2.57;2.37;;;;;;;9.16;100.00;94487.50;6131350;23;20407;-78
2022/09/27 01:56:29;;;;;;;6.40;3.63;;;;;;;9.10;100.00;94487.09;6083428;23;20885;-78
2022/09/27 01:59:14;;;;;;;4.10;3.70;;;;;;;9.03;100.00;94470.44;6108896;23;20405;-78
2022/09/27 02:01:51;;;;;;;3.50;2.93;;;;;;;9.03;100.00;94468.56;6109028;23;20392;-78
2022/09/27 02:04:25;;;;;;;4.90;3.40;;;;;;;8.98;100.00;94461.00;6131403;23;20400;-78
2022/09/27 02:07:28;;;;;;;3.17;2.97;;;;;;;8.87;100.00;94439.78;6124092;23;20490;-78
2022/09/27 02:10:13;;;;;;;3.07;2.80;;;;;;;8.90;100.00;94451.47;6130559;23;20462;-78
2022/09/27 02:13:05;;;;;;;5.13;4.70;;;;;;;8.86;100.00;94435.63;6158043;23;20456;-78
2022/09/27 02:16:13;;;;;;;3.53;3.23;;;;;;;9.07;100.00;94465.94;6106323;23;20870;-78
2022/09/27 02:18:46;;;;;;;2.93;2.63;;;;;;;9.11;100.00;94456.97;6122663;23;20495;-79
2022/09/27 02:21:17;;;;;;;2.80;2.57;;;;;;;8.55;100.00;94386.78;6108590;23;20428;-79
2022/09/27 02:23:52;;;;;;;3.93;3.53;;;;;;;9.01;100.00;94454.22;6158954;23;20439;-79
2022/09/27 02:26:34;;;;;;;3.43;3.13;;;;;;;8.93;100.00;94434.94;6132053;23;20411;-79
2022/09/27 02:29:07;;;;;;;4.00;3.13;;;;;;;9.00;100.00;94444.81;6106541;23;20402;-78
2022/09/27 02:31:42;;;;;;;4.90;2.80;;;;;;;9.03;100.00;94441.44;6130913;23;20418;-78
2022/09/27 02:34:22;;;;;;;2.83;2.63;;;;;;;9.03;100.00;94450.09;6107695;23;20403;-78
2022/09/27 02:36:52;;;;;;;5.33;2.70;;;;;;;8.68;100.00;94410.22;6107868;23;20432;-79
2022/09/27 02:39:19;;;;;;;2.93;2.67;;;;;;;8.82;100.00;94432.22;6108034;23;20399;-78
2022/09/27 02:41:57;;;;;;;2.57;2.37;;;;;;;8.60;100.00;94406.75;6109955;23;20406;-78
2022/09/27 02:44:25;;;;;;;2.70;2.50;;;;;;;8.77;100.00;94429.13;6131679;23;20443;-78
2022/09/27 02:47:04;;;;;;;4.10;2.47;;;;;;;8.95;100.00;94440.63;6131883;23;20427;-78
2022/09/27 02:49:54;;;;;;;2.53;2.33;;;;;;;8.93;100.00;94439.44;6107602;23;20403;-78
2022/09/27 02:53:06;;;;;;;3.07;2.87;;;;;;;8.37;100.00;94354.22;6039343;23;20723;-79
2022/09/27 02:56:09;;;;;;;2.87;2.50;;;;;;;8.89;100.00;94432.28;6016130;23;20403;-78
2022/09/27 02:59:16;;;;;;;3.57;3.27;;;;;;;8.85;100.00;94433.38;6151820;23;20400;-78
2022/09/27 03:02:26;;;;;;;1.90;1.80;;;;;;;8.63;100.00;94413.19;6137179;23;20390;-78
2022/09/27 03:05:39;;;;;;;2.80;1.63;;;;;;;8.73;100.00;94429.09;6104150;23;20392;-78
2022/09/27 03:08:06;;;;;;;2.23;2.03;;;;;;;8.66;100.00;94436.16;6132446;23;20451;-78
2022/09/27 03:10:33;;;;;;;1.83;1.70;;;;;;;8.29;100.00;94371.03;6132060;23;20435;-78
2022/09/27 03:13:00;;;;;;;1.50;1.30;;;;;;;8.22;100.00;94379.59;6131300;23;20490;-78
2022/09/27 03:15:27;;;;;;;2.70;1.53;;;;;;;8.34;100.00;94404.97;6108289;23;20399;-78
2022/09/27 03:18:00;;;;;;;1.60;1.50;;;;;;;8.37;100.00;94406.13;6159177;23;20800;-78
2022/09/27 03:20:45;;;;;;;2.40;1.97;;;;;;;8.43;100.00;94423.13;6136082;23;20427;-77
2022/09/27 03:23:17;;;;;;;2.00;1.33;;;;;;;8.26;100.00;94393.56;6107645;23;20896;-78
2022/09/27 03:25:45;;;;;;;2.40;1.20;;;;;;;8.24;100.00;94406.31;6129934;23;20404;-77
2022/09/27 03:28:12;;;;;;;1.20;1.10;;;;;;;8.10;100.00;94379.84;6129385;23;20470;-77
2022/09/27 03:30:41;;;;;;;1.80;1.37;;;;;;;8.15;100.00;94376.16;6129883;23;20497;-77
2022/09/27 03:33:09;;;;;;;1.40;1.30;;;;;;;8.12;100.00;94374.22;6129306;23;20411;-77
2022/09/27 03:35:36;;;;;;;2.70;1.43;;;;;;;8.43;100.00;94429.16;6129979;23;20424;-78
2022/09/27 03:38:06;;;;;;;2.10;1.27;;;;;;;8.18;100.00;94396.47;6105398;23;20420;-77
2022/09/27 03:40:33;;;;;;;1.40;1.30;;;;;;;8.27;100.00;94405.59;6155157;23;20384;-77
2022/09/27 03:43:00;;;;;;;1.40;1.10;;;;;;;8.26;100.00;94404.09;6128645;23;20874;-77
2022/09/27 03:45:28;;;;;;;2.17;1.30;;;;;;;8.38;100.00;94407.63;6105193;23;20496;-77
2022/09/27 03:47:56;;;;;;;1.77;1.67;;;;;;;8.12;100.00;94372.34;6129241;23;20436;-77
2022/09/27 03:50:23;;;;;;;1.53;1.43;;;;;;;8.34;100.00;94410.22;6104501;23;20439;-77
2022/09/27 03:52:49;;;;;;;1.63;1.53;;;;;;;8.41;100.00;94422.72;6131124;23;20458;-76
2022/09/27 03:55:19;;;;;;;1.83;1.70;;;;;;;8.34;100.00;94404.19;6154018;23;20407;-77
2022/09/27 03:57:46;;;;;;;1.40;1.30;;;;;;;8.44;100.00;94401.72;6128851;23;20404;-77
2022/09/27 04:00:15;;;;;;;1.90;1.50;;;;;;;8.28;100.00;94377.44;6153451;23;20467;-77
2022/09/27 04:02:41;;;;;;;2.90;1.43;;;;;;;7.74;100.00;94291.06;6152910;23;20388;-77
2022/09/27 04:05:21;;;;;;;1.13;1.03;;;;;;;8.51;100.00;94391.22;6156253;23;20380;-77
2022/09/27 04:07:48;;;;;;;1.47;1.10;;;;;;;8.62;100.00;94403.75;6153431;23;20419;-76
2022/09/27 04:10:17;;;;;;;6.10;1.23;;;;;;;8.54;100.00;94405.56;6152898;23;20925;-76
2022/09/27 04:12:43;;;;;;;2.13;1.80;;;;;;;8.05;100.00;94335.44;6152861;23;20387;-77
2022/09/27 04:15:10;;;;;;;2.00;1.83;;;;;;;8.45;100.00;94384.03;6119834;23;20400;-77
2022/09/27 04:17:50;;;;;;;3.00;2.80;;;;;;;8.52;100.00;94398.00;6155757;23;20428;-77
2022/09/27 04:20:48;;;;;;;4.00;2.50;;;;;;;8.26;100.00;94372.50;6136686;23;20395;-77
2022/09/27 04:23:16;;;;;;;3.17;2.50;;;;;;;8.33;100.00;94368.44;6131314;23;20783;-77
2022/09/27 04:25:49;;;;;;;3.17;2.97;;;;;;;8.34;100.00;94377.84;6131190;23;20392;-77
2022/09/27 04:28:36;;;;;;;4.13;2.40;;;;;;;8.33;100.00;94365.81;6141267;23;20458;-77
2022/09/27 04:31:03;;;;;;;2.60;2.40;;;;;;;8.37;100.00;94364.00;6106646;23;20951;-77
2022/09/27 04:33:48;;;;;;;1.80;1.67;;;;;;;8.52;100.00;94376.19;6157265;23;20753;-77
2022/09/27 04:36:25;;;;;;;1.73;1.63;;;;;;;8.22;100.00;94342.00;6130691;23;20945;-77
2022/09/27 04:39:01;;;;;;;1.33;1.23;;;;;;;8.51;100.00;94393.13;6108315;23;20400;-77
2022/09/27 04:41:29;;;;;;;1.60;1.30;;;;;;;8.38;100.00;94354.97;6131245;23;20432;-77
2022/09/27 04:43:56;;;;;;;1.37;1.27;;;;;;;8.56;100.00;94390.19;6106364;23;20435;-77
2022/09/27 04:46:30;;;;;;;3.27;1.57;;;;;;;8.21;100.00;94341.25;6130672;23;20403;-78
2022/09/27 04:48:58;;;;;;;2.83;2.63;;;;;;;8.55;100.00;94393.94;6130630;23;20476;-77
2022/09/27 04:51:26;;;;;;;2.33;2.13;;;;;;;8.34;100.00;94360.22;6107168;23;20510;-78
2022/09/27 04:53:55;;;;;;;2.97;2.57;;;;;;;8.37;100.00;94367.38;6131558;23;20451;-78
2022/09/27 04:56:26;;;;;;;2.47;2.17;;;;;;;8.48;100.00;94370.13;6131651;23;20474;-77
2022/09/27 04:58:53;;;;;;;7.80;5.87;;;;;;;8.49;100.00;94384.81;6105741;23;20713;-77
2022/09/27 05:01:20;;;;;;;7.43;4.63;;;;;;;8.49;100.00;94404.00;6129989;23;20743;-77
2022/09/27 05:04:05;;;;;;;3.23;2.93;;;;;;;8.24;100.00;94366.84;6156387;23;20701;-77
2022/09/27 05:06:35;;;;;;;2.73;2.40;;;;;;;8.32;100.00;94367.69;6105945;23;20796;-77
2022/09/27 05:09:14;;;;;;;2.17;2.00;;;;;;;8.52;100.00;94398.00;6130173;23;20408;-78
2022/09/27 05:11:49;;;;;;;6.23;4.83;;;;;;;8.45;100.00;94390.06;6108593;23;20462;-77
2022/09/27 05:14:34;;;;;;;4.90;4.40;;;;;;;8.29;100.00;94361.28;6130901;23;20396;-78
2022/09/27 05:17:24;;;;;;;3.63;3.27;;;;;;;8.49;100.00;94396.09;6114776;23;20424;-78
2022/09/27 05:19:57;;;;;;;2.60;2.40;;;;;;;8.67;100.00;94396.28;6132155;23;20392;-76
2022/09/27 05:22:46;;;;;;;1.70;1.60;;;;;;;8.74;100.00;94390.34;6119440;23;20894;-77
2022/09/27 05:25:13;;;;;;;2.63;1.90;;;;;;;8.65;100.00;94359.03;6130277;23;20439;-77
2022/09/27 05:27:40;;;;;;;1.90;1.80;;;;;;;8.95;100.00;94395.03;6129665;23;21076;-77
2022/09/27 05:30:08;;;;;;;2.23;1.90;;;;;;;8.66;100.00;94351.88;6129596;23;20504;-77
2022/09/27 05:32:46;;;;;;;2.10;1.90;;;;;;;8.84;100.00;94369.38;6129857;23;20427;-77
2022/09/27 05:35:43;;;;;;;3.07;2.80;;;;;;;8.78;100.00;94368.19;6026370;23;20407;-77
2022/09/27 05:38:11;;;;;;;2.07;1.60;;;;;;;8.53;100.00;94356.63;6106074;23;20886;-77
2022/09/27 05:40:43;;;;;;;2.03;1.83;;;;;;;8.73;100.00;94394.09;6106622;23;20408;-77
2022/09/27 05:43:10;;;;;;;3.20;2.90;;;;;;;8.59;100.00;94358.59;6133209;23;20423;-78
2022/09/27 05:45:37;;;;;;;2.50;2.30;;;;;;;8.83;100.00;94393.47;6132284;23;20399;-77
2022/09/27 05:48:05;;;;;;;2.30;1.90;;;;;;;8.83;100.00;94399.47;6106861;23;20428;-77
2022/09/27 05:50:37;;;;;;;2.90;1.47;;;;;;;8.89;100.00;94403.28;6106995;23;20431;-77
2022/09/27 05:53:04;;;;;;;2.43;1.27;;;;;;;8.41;100.00;94341.09;6105258;23;20403;-77
2022/09/27 05:55:31;;;;;;;2.10;2.00;;;;;;;8.75;100.00;94408.41;6105229;23;20396;-77
2022/09/27 05:58:01;;;;;;;0.90;0.90;;;;;;;8.55;100.00;94418.38;6103550;23;20427;-76
2022/09/27 06:00:39;;;;;;;1.50;1.10;;;;;;;8.20;100.00;94396.88;6106701;23;20446;-77
2022/09/27 06:03:26;;;;;;;2.10;1.20;;;;;;;8.13;100.00;94408.06;6155183;23;20406;-77
2022/09/27 06:06:13;;;;;;;3.20;1.20;;;;;;;8.22;100.00;94426.22;6136052;23;20415;-77
2022/09/27 06:08:51;;;;;;;1.87;1.10;;;;;;;7.95;100.00;94421.00;6130061;23;20462;-77
2022/09/27 06:11:18;;;;;;;2.90;1.63;;;;;;;7.80;100.00;94421.16;6105943;23;20431;-78
2022/09/27 06:13:48;;;;;;;7.67;3.13;;;;;;;7.97;100.00;94442.44;6107427;23;20426;-78
2022/09/27 06:16:15;;;;;;;16.50;3.37;;;;;;;7.97;100.00;94442.44;6106679;23;20443;-78
2022/09/27 06:18:43;;;;;;;2.90;1.60;;;;;;;7.89;100.00;94442.72;6107169;23;20435;-78
2022/09/27 06:21:12;;;;;;;2.60;1.60;;;;;;;7.68;100.00;94420.25;6132254;23;21095;-79
2022/09/27 06:23:41;;;;;;;2.43;1.30;;;;;;;7.85;100.00;94434.00;6108626;23;20426;-78
2022/09/27 06:26:14;;;;;;;10.43;2.47;;;;;;;7.62;100.00;94413.03;6131330;23;20407;-78
2022/09/27 06:28:56;;;;;;;8.93;2.23;;;;;;;7.41;100.00;94395.81;6111208;23;20407;-78
2022/09/27 06:31:23;;;;;;;5.90;2.70;;;;;;;7.56;100.00;94423.06;6131868;23;20471;-78
2022/09/27 06:34:11;;;;;;;8.93;2.77;;;;;;;7.80;100.00;94458.00;6113739;23;20395;-78
2022/09/27 06:36:38;;;;;;;4.37;2.00;;;;;;;7.77;100.00;94437.66;6109701;23;20419;-78
2022/09/27 06:39:04;;;;;;;3.13;1.50;;;;;;;7.80;100.00;94429.81;6147753;23;20404;-78
2022/09/27 06:41:39;;;;;;;2.73;2.53;;;;;;;7.88;100.00;94439.34;6123888;23;20407;-78
2022/09/27 06:44:25;;;;;;;6.83;3.33;;;;;;;7.80;100.00;94434.31;6152691;23;20388;-78
2022/09/27 06:47:11;;;;;;;3.50;2.67;;;;;;;7.61;100.00;94411.50;6150865;23;20411;-78
2022/09/27 06:49:56;;;;;;;3.97;1.33;;;;;;;7.71;100.00;94452.97;6134903;23;20372;-78
2022/09/27 06:52:24;;;;;;;3.57;2.53;;;;;;;7.88;100.00;94480.63;6129805;23;20436;-78
2022/09/27 06:54:51;;;;;;;3.17;1.57;;;;;;;7.68;100.00;94457.06;6105224;23;20400;-78
2022/09/27 07:00:22;;;;;;;2.17;1.23;;;;;;;7.53;100.00;94439.56;6104506;23;20432;-77
2022/09/27 07:03:12;;;;;;;2.47;1.60;;;;;;;7.76;100.00;94472.97;6155379;23;20402;-77
2022/09/27 07:05:58;;;;;;;2.27;1.80;;;;;;;7.59;100.00;94446.03;6129256;23;20399;-77
2022/09/27 07:08:39;;;;;;;1.60;1.50;;;;;;;7.68;100.00;94451.06;6130613;23;20906;-77
2022/09/27 07:11:06;;;;;;;1.80;1.70;;;;;;;7.72;100.00;94455.25;6128437;23;20462;-77
2022/09/27 07:13:39;;;;;;;1.50;1.27;;;;;;;7.98;100.00;94485.31;6129534;23;20404;-77
2022/09/27 07:16:06;;;;;;;2.00;1.20;;;;;;;7.71;100.00;94468.75;6129943;23;20483;-77
2022/09/27 07:18:33;;;;;;;1.93;1.03;;;;;;;7.90;100.00;94478.44;6130503;23;20439;-77
2022/09/27 07:21:00;;;;;;;1.57;1.20;;;;;;;7.68;100.00;94459.69;6108267;23;20404;-79
2022/09/27 07:23:28;;;;;;;1.93;1.03;;;;;;;7.52;100.00;94451.19;6107546;23;20439;-78
2022/09/27 07:26:00;;;;;;;1.87;1.67;;;;;;;7.43;100.00;94440.16;6132777;23;20408;-79
2022/09/27 07:28:27;;;;;;;2.40;1.30;;;;;;;7.51;100.00;94454.19;6133441;23;20478;-79
2022/09/27 07:30:55;;;;;;;1.90;1.80;;;;;;;7.70;100.00;94478.50;6132510;23;20432;-79
2022/09/27 07:33:23;;;;;;;1.83;1.60;;;;;;;7.67;100.00;94457.44;6133451;23;20498;-79
2022/09/27 07:35:50;;;;;;;1.00;0.83;;;;;;;7.85;100.00;94497.13;6134075;23;20407;-79
2022/09/27 07:38:16;;;;;;;1.67;1.40;;;;;;;7.92;100.00;94505.16;6133834;23;20436;-79
2022/09/27 07:40:43;;;;;;;4.50;1.50;;;;;;;7.70;100.00;94462.72;6108447;23;20403;-79
2022/09/27 07:43:11;;;;;;;2.60;2.40;;;;;;;7.82;100.00;94493.34;6131509;23;20415;-79
2022/09/27 07:45:38;;;;;;;3.93;1.50;;;;;;;7.94;100.00;94500.28;6106176;23;20415;-79
2022/09/27 07:48:20;;;;;;;1.93;1.77;;;;;;;7.60;100.00;94455.44;6132279;23;20427;-79
2022/09/27 07:51:01;;;;;;;1.50;1.40;;;;;;;7.90;100.00;94496.84;6111530;23;20419;-79
2022/09/27 07:54:00;;;;;;;3.10;2.87;;;;;;;7.72;100.00;94481.53;6109941;23;20424;-79
2022/09/27 07:56:51;;;;;;;2.40;1.50;;;;;;;8.02;100.00;94506.44;6161177;23;20411;-79
2022/09/27 07:59:20;;;;;;;2.40;1.63;;;;;;;7.83;100.00;94484.34;6109980;23;20448;-77
2022/09/27 08:01:47;;;;;;;1.47;1.37;;;;;;;7.91;100.00;94493.13;6133233;23;20407;-77
2022/09/27 08:04:14;;;;;;;2.20;1.53;;;;;;;7.96;100.00;94490.94;6133641;23;20738;-78
2022/09/27 08:06:41;;;;;;;1.73;1.63;;;;;;;7.92;100.00;94502.53;6110392;23;20477;-78
2022/09/27 08:09:11;;;;;;;3.90;2.23;;;;;;;7.90;100.00;94491.59;6130806;23;20415;-78
2022/09/27 08:11:39;;;;;;;1.53;1.43;;;;;;;7.81;100.00;94504.22;6130707;23;20427;-77
2022/09/27 08:14:09;;;;;;;2.10;1.73;;;;;;;7.83;100.00;94513.28;6131055;23;20408;-77
2022/09/27 08:16:38;;;;;;;1.70;1.27;;;;;;;7.75;100.00;94508.28;6130123;23;20787;-77
2022/09/27 08:19:24;;;;;;;1.50;1.40;;;;;;;7.81;100.00;94522.63;6135400;23;20372;-77
2022/09/27 08:22:20;;;;;;;1.53;1.43;;;;;;;7.76;100.00;94500.03;6098875;23;20483;-77
2022/09/27 08:25:01;;;;;;;1.30;1.20;;;;;;;7.74;100.00;94499.59;6109014;23;20455;-77
2022/09/27 08:28:06;;;;;;;1.20;1.10;;;;;;;8.11;100.00;94554.28;6112948;23;20443;-77
2022/09/27 08:30:42;;;;;;;0.83;0.83;;;;;;;7.96;100.00;94533.03;6131346;23;20878;-78
2022/09/27 08:33:08;;;;;;;1.53;1.30;;;;;;;7.82;100.00;94519.66;6106647;23;20745;-77
2022/09/27 08:35:35;;;;;;;1.43;1.00;;;;;;;7.91;100.00;94548.38;6107493;23;20431;-77
2022/09/27 08:38:04;;;;;;;1.57;1.23;;;;;;;8.11;100.00;94577.97;6104715;23;20420;-76
2022/09/27 08:40:58;;;;;;;1.20;1.10;;;;;;;8.17;100.00;94590.50;6130663;23;20459;-76
2022/09/27 08:43:31;;;;;;;1.33;1.17;;;;;;;8.03;100.00;94584.25;6107192;23;20431;-77
2022/09/27 08:46:04;;;;;;;1.30;0.83;;;;;;;7.85;100.00;94602.38;6131917;23;20877;-77
2022/09/27 08:48:31;;;;;;;0.73;0.70;;;;;;;7.55;100.00;94603.00;6106116;23;20458;-77
2022/09/27 08:51:02;;;;;;;0.70;0.70;;;;;;;7.28;100.00;94580.34;6108199;23;20435;-77
2022/09/27 08:53:40;;;;;;;0.87;0.87;;;;;;;7.43;100.00;94589.25;6139813;23;20925;-77
2022/09/27 08:56:09;;;;;;;1.07;0.73;;;;;;;7.40;100.00;94594.09;6139431;23;20391;-77
2022/09/27 08:59:03;;;;;;;1.20;1.10;;;;;;;7.44;100.00;94603.91;6116245;23;20419;-77
2022/09/27 09:01:33;;;;;;;1.33;1.20;;;;;;;7.25;100.00;94541.63;6141927;23;20396;-77
2022/09/27 09:04:38;;;;;;;1.03;0.93;;;;;;;7.78;100.00;94603.03;6160213;23;20431;-78
2022/09/27 09:07:17;;;;;;;1.23;1.00;;;;;;;8.06;100.00;94629.03;6109684;23;20424;-78
2022/09/27 09:10:00;;;;;;;1.10;1.00;;;;;;;7.93;100.00;94614.53;6110682;23;20408;-78
2022/09/27 09:12:56;;;;;;;1.40;1.00;;;;;;;8.04;100.00;94633.16;6138112;23;20463;-78
2022/09/27 09:16:28;;;;;;;1.10;1.00;;;;;;;8.08;100.00;94634.72;6115074;23;20462;-78
2022/09/27 09:19:08;;;;;;;1.50;1.10;;;;;;;8.08;100.00;94620.78;6134707;23;20427;-79
2022/09/27 09:21:57;;;;;;;0.73;0.73;;;;;;;8.14;100.00;94641.19;6134027;23;20404;-78
2022/09/27 09:24:58;;;;;;;1.10;1.00;;;;;;;8.33;100.00;94647.50;6160422;23;20384;-78
2022/09/27 09:27:39;;;;;;;1.03;0.93;;;;;;;8.31;100.00;94637.34;6134680;23;20488;-79
2022/09/27 09:30:22;;;;;;;1.03;0.93;;;;;;;8.35;100.00;94653.22;6108577;23;20882;-79
2022/09/27 09:33:49;;;;;;;1.53;1.00;;;;;;;8.33;100.00;94644.88;6133474;23;20427;-80
2022/09/27 09:36:34;;;;;;;1.10;1.00;;;;;;;8.28;100.00;94638.81;6070226;23;20414;-79
2022/09/27 09:39:10;;;;;;;1.80;1.10;;;;;;;7.93;100.00;94596.13;6130794;23;20878;-78
2022/09/27 09:42:11;;;;;;;1.00;0.90;;;;;;;8.29;100.00;94658.75;6136117;23;20407;-79
2022/09/27 09:44:47;;;;;;;0.90;0.90;;;;;;;8.07;100.00;94641.09;6099495;23;20490;-79
2022/09/27 09:47:34;;;;;;;1.63;1.03;;;;;;;8.12;100.00;94605.81;6135083;23;20441;-79
2022/09/27 09:50:14;;;;;;;1.00;0.90;;;;;;;8.57;100.00;94640.03;6107269;23;20435;-79
2022/09/27 09:52:48;;;;;;;1.03;0.93;;;;;;;8.73;100.00;94642.50;6129623;23;20435;-79
2022/09/27 09:55:18;;;;;;;1.00;0.90;;;;;;;8.64;100.00;94617.53;6130960;23;20484;-79
2022/09/27 09:58:02;;;;;;;1.77;0.80;;;;;;;8.85;100.00;94652.06;6130756;23;20961;-79
2022/09/27 10:00:39;;;;;;;0.80;0.80;;;;;;;8.51;100.00;94624.88;6131069;23;20424;-79
2022/09/27 10:03:06;;;;;;;0.97;0.90;;;;;;;8.39;100.00;94620.53;6130804;23;20414;-79
2022/09/27 10:05:33;;;;;;;5.30;1.30;;;;;;;7.74;100.00;94525.91;6130197;23;20408;-79
2022/09/27 10:08:11;;;;;;;1.00;0.90;;;;;;;8.68;100.00;94665.75;6130348;23;20420;-79
2022/09/27 10:10:39;;;;;;;1.20;1.00;;;;;;;8.56;100.00;94637.75;6130898;23;20407;-80
2022/09/27 10:13:37;;;;;;;1.10;1.00;;;;;;;8.21;100.00;94596.56;6112717;23;20406;-80
2022/09/27 10:16:08;;;;;;;1.47;1.10;;;;;;;8.82;100.00;94669.38;6106633;23;20511;-79
2022/09/27 10:18:38;;;;;;;1.30;1.20;;;;;;;8.53;100.00;94604.94;6105938;23;20937;-79
2022/09/27 10:21:30;;;;;;;0.70;0.70;;;;;;;8.66;100.00;94663.47;6130196;23;20418;-79
2022/09/27 10:24:07;;;;;;;1.83;0.70;;;;;;;8.17;100.00;94629.97;6112138;23;20406;-79
2022/09/27 10:27:00;;;;;;;1.00;1.00;;;;;;;8.16;100.00;94646.13;6111046;23;20436;-79
2022/09/27 10:29:32;;;;;;;1.63;1.10;;;;;;;8.44;100.00;94674.81;6130540;23;20406;-79
2022/09/27 10:32:21;;;;;;;0.90;0.90;;;;;;;7.81;100.00;94598.94;6108099;23;20463;-79
2022/09/27 10:34:50;;;;;;;1.20;1.10;;;;;;;8.38;100.00;94671.69;6130830;23;20408;-79
2022/09/27 10:37:21;;;;;;;1.87;1.17;;;;;;;8.39;100.00;94680.34;6107409;23;20431;-79
2022/09/27 10:40:23;;;;;;;0.80;0.80;;;;;;;8.47;100.00;94666.97;6131067;23;20423;-79
2022/09/27 10:42:50;;;;;;;1.00;0.90;;;;;;;8.59;100.00;94653.59;6141053;23;20408;-79
2022/09/27 10:45:32;;;;;;;0.73;0.73;;;;;;;8.74;100.00;94654.56;6151751;23;20407;-79
2022/09/27 10:48:18;;;;;;;0.90;0.90;;;;;;;9.21;100.00;94674.38;6151154;23;20447;-79
2022/09/27 10:51:00;;;;;;;0.80;0.80;;;;;;;9.14;100.00;94653.97;6127028;23;20406;-79
2022/09/27 10:53:45;;;;;;;2.87;1.10;;;;;;;9.22;100.00;94660.09;6151301;23;20388;-79
2022/09/27 10:56:33;;;;;;;0.90;0.90;;;;;;;9.32;100.00;94663.97;6137286;23;20391;-80
2022/09/27 10:59:03;;;;;;;0.90;0.70;;;;;;;9.12;100.00;94610.63;6130259;23;20833;-79
2022/09/27 11:01:44;;;;;;;1.07;0.97;;;;;;;9.55;100.00;94659.34;6106808;23;20447;-80
2022/09/27 11:04:37;;;;;;;1.40;1.20;;;;;;;9.73;100.00;94670.09;6108812;23;20428;-80
2022/09/27 11:07:17;;;;;;;1.93;0.83;;;;;;;9.61;100.00;94643.94;6131648;23;20404;-80
2022/09/27 11:09:53;;;;;;;1.13;0.80;;;;;;;9.34;100.00;94644.03;6131517;23;20885;-80
2022/09/27 11:12:24;;;;;;;2.30;0.90;;;;;;;9.45;100.00;94671.28;6130819;23;20444;-79
2022/09/27 11:14:56;;;;;;;0.90;0.90;;;;;;;8.61;100.00;94582.13;6131011;23;20785;-80
2022/09/27 11:17:51;;;;;;;1.10;0.90;;;;;;;8.81;100.00;94630.97;6130315;23;20443;-80
2022/09/27 11:20:23;;;;;;;0.70;0.70;;;;;;;8.98;100.00;94681.63;6130422;23;20396;-80
2022/09/27 11:23:46;;;;;;;0.80;0.80;;;;;;;8.80;100.00;94684.75;6130983;23;20419;-80
2022/09/27 11:26:32;;;;;;;1.53;1.00;;;;;;;8.65;100.00;94677.75;6019636;23;20415;-80
2022/09/27 11:29:39;;;;;;;2.73;1.40;;;;;;;8.67;100.00;94683.41;6101765;23;20408;-80
2022/09/27 11:32:59;;;;;;;1.40;1.10;;;;;;;8.53;100.00;94680.56;6070580;23;20438;-80
2022/09/27 11:35:46;;;;;;;1.47;1.27;;;;;;;8.89;100.00;94681.88;6108974;23;20400;-80
2022/09/27 11:38:23;;;;;;;1.00;0.90;;;;;;;9.20;100.00;94686.03;6107911;23;20438;-80
2022/09/27 11:41:13;;;;;;;1.07;0.97;;;;;;;8.83;100.00;94678.78;6112633;23;20772;-80
2022/09/27 11:44:05;;;;;;;1.87;1.77;;;;;;;8.78;100.00;94671.16;6131744;23;20407;-80
2022/09/27 11:46:36;;;;;;;1.20;0.90;;;;;;;8.56;100.00;94651.69;6107374;23;20440;-80
2022/09/27 11:49:15;;;;;;;1.10;1.00;;;;;;;9.28;100.00;94674.47;6109426;23;20402;-80
2022/09/27 11:52:03;;;;;;;1.30;1.20;;;;;;;9.35;100.00;94682.50;6132218;23;20404;-80
2022/09/27 11:54:33;;;;;;;1.67;1.37;;;;;;;9.18;100.00;94694.31;6132074;23;20905;-80
2022/09/27 11:57:15;;;;;;;1.80;1.00;;;;;;;8.90;100.00;94709.75;6131758;23;20420;-79
2022/09/27 11:59:56;;;;;;;2.17;1.33;;;;;;;8.69;100.00;94710.19;6134261;23;20454;-79
2022/09/27 12:02:51;;;;;;;3.10;0.80;;;;;;;8.02;100.00;94701.16;6132021;23;20455;-78
2022/09/27 12:05:46;;;;;;;0.70;0.70;;;;;;;7.61;100.00;94698.91;6106537;23;20419;-77
2022/09/27 12:08:32;;;;;;;1.20;0.97;;;;;;;7.54;100.00;94696.13;6130616;23;20434;-78
2022/09/27 12:11:09;;;;;;;1.13;1.03;;;;;;;7.82;100.00;94701.16;6130507;23;20399;-78
2022/09/27 12:13:42;;;;;;;0.87;0.87;;;;;;;8.27;100.00;94660.97;6106418;23;20458;-79
2022/09/27 12:16:14;;;;;;;1.90;1.60;;;;;;;9.37;100.00;94674.22;6157851;23;20368;-79
2022/09/27 12:18:42;;;;;;;2.03;1.80;;;;;;;10.05;100.00;94659.84;6107060;23;20523;-79
2022/09/27 12:21:36;;;;;;;1.07;0.97;;;;;;;10.05;100.00;94662.50;6130665;23;20404;-79
2022/09/27 12:24:03;;;;;;;1.20;1.00;;;;;;;10.36;100.00;94669.97;6107050;23;20431;-79
2022/09/27 12:26:41;;;;;;;1.30;1.20;;;;;;;10.21;100.00;94635.84;6130465;23;20924;-77